createdAt,value
2022-12-03T00:02:16.105Z,44.67
2022-12-03T00:04:42.798Z,48.30
2022-12-03T00:07:09.394Z,43.50
2022-12-03T00:09:35.947Z,46.90
2022-12-03T00:12:02.608Z,44.73
2022-12-03T00:14:29.269Z,43.33
2022-12-03T00:16:55.831Z,46.53
2022-12-03T00:19:22.342Z,43.13
2022-12-03T00:21:48.860Z,42.63
2022-12-03T00:24:15.439Z,45.10
2022-12-03T00:26:41.990Z,51.07
2022-12-03T00:29:08.494Z,54.00
2022-12-03T00:31:35.221Z,43.37
2022-12-03T00:34:01.852Z,47.30
2022-12-03T00:36:28.360Z,44.03
2022-12-03T00:38:54.927Z,42.17
2022-12-03T00:41:21.563Z,43.97
2022-12-03T00:43:48.103Z,44.40
2022-12-03T00:46:19.656Z,39.83
2022-12-03T00:48:47.781Z,41.30
2022-12-03T00:51:14.330Z,40.13
2022-12-03T00:53:40.931Z,45.87
2022-12-03T00:56:07.616Z,46.20
2022-12-03T00:58:34.253Z,42.03
2022-12-03T01:01:00.791Z,41.00
2022-12-03T01:03:27.739Z,40.43
2022-12-03T01:05:54.776Z,46.43
2022-12-03T01:08:21.304Z,37.97
2022-12-03T01:10:47.769Z,39.80
2022-12-03T01:13:14.293Z,39.93
2022-12-03T01:15:40.843Z,40.33
2022-12-03T01:18:07.495Z,40.50
2022-12-03T01:20:36.242Z,43.10
2022-12-03T01:23:02.789Z,41.93
2022-12-03T01:25:29.376Z,41.53
2022-12-03T01:27:55.955Z,48.50
2022-12-03T01:30:22.559Z,44.70
2022-12-03T01:32:49.067Z,42.20
2022-12-03T01:35:15.543Z,50.67
2022-12-03T01:37:42.057Z,44.73
2022-12-03T01:40:09.236Z,42.83
2022-12-03T01:42:37.147Z,37.40
2022-12-03T01:45:04.157Z,38.50
2022-12-03T01:47:31.592Z,37.33
2022-12-03T01:50:07.486Z,35.57
2022-12-03T01:52:36.094Z,35.43
2022-12-03T01:55:05.041Z,32.67
2022-12-03T01:57:37.722Z,34.53
2022-12-03T02:00:04.451Z,36.20
2022-12-03T02:02:32.067Z,34.70
2022-12-03T02:04:59.690Z,37.67
2022-12-03T02:07:33.710Z,32.90
2022-12-03T02:10:01.377Z,32.23
2022-12-03T02:12:35.262Z,36.37
2022-12-03T02:15:02.099Z,36.60
2022-12-03T02:17:28.787Z,36.13
2022-12-03T02:19:56.020Z,38.80
2022-12-03T02:22:30.241Z,37.33
2022-12-03T02:25:15.483Z,34.53
2022-12-03T02:27:42.230Z,41.90
2022-12-03T02:30:09.236Z,41.80
2022-12-03T02:32:35.852Z,39.33
2022-12-03T02:35:02.383Z,40.43
2022-12-03T02:37:38.070Z,42.40
2022-12-03T02:40:09.615Z,42.20
2022-12-03T02:42:36.438Z,41.73
2022-12-03T02:45:20.830Z,43.37
2022-12-03T02:47:49.236Z,42.53
2022-12-03T02:50:19.657Z,43.00
2022-12-03T02:52:46.947Z,42.83
2022-12-03T02:55:14.768Z,39.80
2022-12-03T02:57:41.530Z,48.90
2022-12-03T03:00:09.701Z,41.33
2022-12-03T03:02:37.359Z,43.20
2022-12-03T03:05:05.822Z,52.23
2022-12-03T03:07:32.543Z,44.40
2022-12-03T03:09:59.883Z,41.10
2022-12-03T03:12:26.399Z,41.63
2022-12-03T03:14:53.177Z,45.20
2022-12-03T03:17:19.919Z,46.97
2022-12-03T03:19:46.745Z,48.07
2022-12-03T03:22:13.289Z,44.53
2022-12-03T03:24:39.820Z,49.73
2022-12-03T03:27:06.473Z,50.97
2022-12-03T03:29:33.478Z,54.70
2022-12-03T03:32:00.854Z,53.40
2022-12-03T03:34:27.678Z,53.60
2022-12-03T03:36:54.321Z,54.00
2022-12-03T03:39:20.847Z,54.83
2022-12-03T03:41:47.443Z,61.47
2022-12-03T03:44:13.991Z,55.37
2022-12-03T03:46:41.288Z,62.90
2022-12-03T03:49:07.897Z,61.23
2022-12-03T03:51:35.437Z,52.47
2022-12-03T03:54:02.712Z,59.20
2022-12-03T03:56:29.346Z,65.77
2022-12-03T03:58:56.208Z,58.50
2022-12-03T04:01:23.345Z,56.23
2022-12-03T04:03:50.025Z,62.10
2022-12-03T04:06:16.584Z,58.93
2022-12-03T04:08:43.961Z,59.63
2022-12-03T04:11:28.893Z,49.03
2022-12-03T04:13:55.396Z,59.33
2022-12-03T04:16:22.029Z,53.47
2022-12-03T04:18:48.604Z,50.97
2022-12-03T04:21:35.100Z,55.00
2022-12-03T04:24:01.707Z,54.80
2022-12-03T04:26:46.951Z,46.60
2022-12-03T04:29:17.392Z,41.80
2022-12-03T04:32:06.972Z,43.00
2022-12-03T04:34:52.548Z,42.93
2022-12-03T04:37:19.426Z,39.00
2022-12-03T04:39:45.992Z,42.00
2022-12-03T04:42:12.486Z,41.87
2022-12-03T04:44:39.085Z,37.93
2022-12-03T04:47:07.470Z,40.83
2022-12-03T04:49:34.537Z,38.63
2022-12-03T04:52:01.006Z,36.57
2022-12-03T04:54:28.430Z,39.37
2022-12-03T04:56:54.951Z,37.70
2022-12-03T04:59:21.527Z,36.53
2022-12-03T05:01:48.213Z,40.57
2022-12-03T05:04:15.140Z,38.37
2022-12-03T05:06:42.143Z,36.40
2022-12-03T05:09:08.633Z,40.57
2022-12-03T05:11:35.179Z,40.10
2022-12-03T05:14:01.716Z,39.63
2022-12-03T05:16:28.660Z,40.77
2022-12-03T05:18:55.259Z,40.13
2022-12-03T05:21:21.769Z,36.23
2022-12-03T05:23:48.237Z,36.60
2022-12-03T05:26:15.096Z,38.57
2022-12-03T05:28:41.547Z,40.23
2022-12-03T05:31:08.334Z,43.03
2022-12-03T05:33:38.350Z,36.37
2022-12-03T05:36:09.217Z,43.30
2022-12-03T05:38:35.732Z,36.17
2022-12-03T05:41:02.255Z,39.50
2022-12-03T05:43:28.769Z,44.43
2022-12-03T05:45:55.310Z,42.37
2022-12-03T05:48:21.858Z,40.73
2022-12-03T05:50:48.363Z,38.90
2022-12-03T05:53:15.771Z,41.03
2022-12-03T05:55:42.467Z,38.27
2022-12-03T05:58:09.254Z,38.90
2022-12-03T06:00:42.455Z,37.37
2022-12-03T06:03:10.137Z,42.07
2022-12-03T06:05:36.831Z,39.73
2022-12-03T06:08:03.421Z,39.47
2022-12-03T06:10:30.272Z,37.57
2022-12-03T06:12:56.987Z,39.53
2022-12-03T06:15:23.869Z,42.30
2022-12-03T06:17:50.452Z,44.07
2022-12-03T06:20:18.237Z,45.03
2022-12-03T06:22:45.231Z,37.40
2022-12-03T06:25:11.748Z,46.05
2022-12-03T06:27:38.275Z,41.70
2022-12-03T06:30:05.781Z,41.40
2022-12-03T06:32:32.342Z,40.77
2022-12-03T06:34:58.879Z,38.27
2022-12-03T06:37:25.420Z,40.73
2022-12-03T06:39:52.038Z,36.53
2022-12-03T06:42:18.653Z,44.03
2022-12-03T06:44:45.167Z,45.53
2022-12-03T06:47:11.641Z,42.73
2022-12-03T06:49:38.292Z,43.50
2022-12-03T06:52:05.545Z,41.83
2022-12-03T06:54:32.063Z,42.27
2022-12-03T06:56:58.710Z,42.43
2022-12-03T06:59:25.256Z,39.70
2022-12-03T07:01:51.965Z,37.97
2022-12-03T07:04:18.530Z,39.63
2022-12-03T07:06:45.131Z,39.27
2022-12-03T07:09:11.655Z,35.30
2022-12-03T07:11:40.460Z,40.50
2022-12-03T07:14:07.898Z,40.93
2022-12-03T07:16:35.002Z,39.93
2022-12-03T07:19:01.711Z,40.10
2022-12-03T07:21:28.250Z,35.00
2022-12-03T07:23:54.751Z,37.17
2022-12-03T07:26:21.339Z,37.17
2022-12-03T07:28:48.348Z,35.70
2022-12-03T07:31:15.435Z,37.50
2022-12-03T07:33:42.390Z,37.03
2022-12-03T07:36:09.309Z,35.13
2022-12-03T07:38:35.850Z,36.83
2022-12-03T07:41:02.670Z,32.67
2022-12-03T07:43:29.155Z,40.73
2022-12-03T07:45:55.694Z,37.73
2022-12-03T07:48:22.221Z,38.23
2022-12-03T07:50:48.757Z,35.77
2022-12-03T07:53:15.232Z,41.87
2022-12-03T07:55:41.774Z,36.83
2022-12-03T07:58:09.124Z,40.77
2022-12-03T08:00:35.633Z,40.33
2022-12-03T08:03:02.249Z,39.77
2022-12-03T08:05:29.859Z,43.43
2022-12-03T08:07:56.680Z,38.93
2022-12-03T08:10:24.881Z,41.17
2022-12-03T08:12:51.490Z,37.27
2022-12-03T08:15:24.049Z,37.27
2022-12-03T08:17:54.937Z,37.57
2022-12-03T08:20:23.534Z,38.53
2022-12-03T08:22:51.360Z,57.80
2022-12-03T08:25:28.228Z,62.37
2022-12-03T08:28:24.159Z,169.57
2022-12-03T08:30:58.943Z,220.97
2022-12-03T08:33:35.734Z,163.53
2022-12-03T08:36:12.613Z,75.23
2022-12-03T08:38:40.835Z,46.40
2022-12-03T08:41:12.942Z,48.13
2022-12-03T08:43:42.751Z,42.77
2022-12-03T08:46:17.688Z,42.60
2022-12-03T08:48:48.716Z,38.00
2022-12-03T08:51:20.816Z,38.10
2022-12-03T08:53:55.367Z,40.83
2022-12-03T08:56:29.195Z,46.40
2022-12-03T08:59:00.327Z,42.00
2022-12-03T09:01:42.093Z,35.73
2022-12-03T09:04:17.476Z,42.13
2022-12-03T09:06:44.146Z,41.57
2022-12-03T09:09:10.671Z,40.27
2022-12-03T09:11:37.505Z,41.47
2022-12-03T09:14:04.286Z,37.50
2022-12-03T09:16:31.030Z,35.97
2022-12-03T09:18:57.893Z,39.37
2022-12-03T09:21:24.391Z,38.47
2022-12-03T09:23:50.901Z,38.70
2022-12-03T09:26:17.441Z,37.10
2022-12-03T09:28:43.960Z,35.63
2022-12-03T09:31:10.487Z,35.20
2022-12-03T09:33:36.979Z,37.40
2022-12-03T09:36:03.594Z,36.87
2022-12-03T09:38:30.195Z,42.57
2022-12-03T09:40:56.987Z,39.53
2022-12-03T09:43:24.633Z,35.43
2022-12-03T09:45:56.336Z,38.13
2022-12-03T09:48:23.077Z,35.43
2022-12-03T09:50:49.845Z,36.00
2022-12-03T09:53:18.623Z,30.77
2022-12-03T09:55:45.997Z,35.40
2022-12-03T09:58:13.410Z,37.30
2022-12-03T10:00:40.768Z,34.90
2022-12-03T10:03:08.080Z,30.90
2022-12-03T10:05:34.971Z,38.97
2022-12-03T10:08:06.731Z,31.77
2022-12-03T10:10:33.788Z,36.93
2022-12-03T10:13:00.473Z,44.23
2022-12-03T10:15:27.127Z,36.23
2022-12-03T10:17:54.667Z,36.03
2022-12-03T10:20:22.034Z,36.27
2022-12-03T10:22:48.909Z,33.87
2022-12-03T10:25:19.929Z,39.60
2022-12-03T10:27:59.918Z,36.33
2022-12-03T10:30:28.554Z,34.90
2022-12-03T10:32:56.996Z,36.50
2022-12-03T10:35:24.840Z,33.97
2022-12-03T10:37:57.091Z,38.53
2022-12-03T10:40:24.624Z,39.37
2022-12-03T10:42:52.985Z,42.33
2022-12-03T10:45:21.083Z,38.70
2022-12-03T10:48:04.755Z,38.10
2022-12-03T10:50:31.631Z,41.37
2022-12-03T10:52:58.321Z,42.17
2022-12-03T10:55:25.108Z,39.80
2022-12-03T10:57:51.868Z,42.70
2022-12-03T11:00:19.325Z,41.80
2022-12-03T11:02:53.031Z,36.90
2022-12-03T11:05:26.707Z,42.07
2022-12-03T11:07:53.409Z,38.97
2022-12-03T11:10:20.284Z,45.50
2022-12-03T11:13:18.722Z,40.20
2022-12-03T11:15:45.389Z,44.73
2022-12-03T11:18:31.893Z,41.03
2022-12-03T11:21:03.146Z,37.87
2022-12-03T11:23:49.627Z,41.43
2022-12-03T11:26:19.533Z,41.67
2022-12-03T11:28:46.495Z,44.30
2022-12-03T11:31:31.758Z,48.30
2022-12-03T11:34:21.084Z,42.17
2022-12-03T11:37:06.174Z,45.63
2022-12-03T11:39:44.556Z,40.33
2022-12-03T11:42:31.318Z,39.27
2022-12-03T11:45:03.780Z,40.60
2022-12-03T11:47:31.207Z,42.90
2022-12-03T11:49:58.048Z,47.63
2022-12-03T11:52:27.397Z,45.60
2022-12-03T11:54:57.525Z,44.37
2022-12-03T11:57:35.946Z,43.67
2022-12-03T12:00:07.715Z,42.63
2022-12-03T12:02:41.464Z,42.23
2022-12-03T12:05:23.031Z,50.03
2022-12-03T12:07:50.108Z,43.50
2022-12-03T12:10:35.525Z,45.83
2022-12-03T12:13:02.101Z,41.67
2022-12-03T12:15:43.329Z,42.93
2022-12-03T12:18:28.537Z,44.33
2022-12-03T12:20:55.039Z,46.00
2022-12-03T12:23:25.443Z,48.67
2022-12-03T12:25:54.342Z,47.73
2022-12-03T12:28:21.148Z,41.27
2022-12-03T12:30:47.663Z,47.57
2022-12-03T12:33:19.663Z,48.70
2022-12-03T12:35:46.259Z,47.80
2022-12-03T12:38:14.863Z,47.80
2022-12-03T12:40:42.567Z,48.13
2022-12-03T12:43:20.473Z,49.10
2022-12-03T12:45:51.383Z,44.70
2022-12-03T12:48:18.262Z,49.00
2022-12-03T12:50:45.920Z,53.00
2022-12-03T12:53:16.723Z,48.50
2022-12-03T12:55:43.268Z,53.80
2022-12-03T12:58:16.716Z,46.90
2022-12-03T13:00:45.539Z,46.17
2022-12-03T13:03:12.768Z,46.73
2022-12-03T13:05:40.734Z,55.17
2022-12-03T13:08:27.403Z,52.20
2022-12-03T13:10:58.186Z,53.13
2022-12-03T13:13:26.244Z,49.60
2022-12-03T13:15:52.797Z,54.93
2022-12-03T13:18:32.483Z,52.23
2022-12-03T13:20:59.358Z,52.10
2022-12-03T13:23:30.265Z,55.27
2022-12-03T13:26:01.992Z,51.57
2022-12-03T13:28:36.151Z,54.00
2022-12-03T13:31:15.565Z,62.03
2022-12-03T13:33:42.505Z,58.67
2022-12-03T13:36:12.184Z,50.43
2022-12-03T13:38:38.706Z,58.90
2022-12-03T13:41:05.328Z,54.27
2022-12-03T13:43:32.717Z,57.33
2022-12-03T13:45:59.872Z,49.07
2022-12-03T13:48:29.501Z,57.90
2022-12-03T13:50:56.324Z,56.60
2022-12-03T13:53:28.043Z,51.13
2022-12-03T13:56:11.899Z,57.10
2022-12-03T13:58:38.407Z,67.40
2022-12-03T14:01:04.960Z,57.60
2022-12-03T14:03:31.572Z,58.77
2022-12-03T14:05:58.099Z,57.27
2022-12-03T14:08:24.631Z,61.40
2022-12-03T14:10:55.559Z,59.00
2022-12-03T14:13:25.312Z,53.80
2022-12-03T14:15:51.891Z,62.83
2022-12-03T14:18:18.445Z,62.50
2022-12-03T14:20:44.951Z,72.17
2022-12-03T14:23:11.523Z,66.03
2022-12-03T14:25:38.047Z,63.37
2022-12-03T14:28:08.627Z,60.53
2022-12-03T14:30:35.848Z,63.90
2022-12-03T14:33:02.696Z,63.90
2022-12-03T14:35:29.411Z,63.37
2022-12-03T14:37:55.898Z,66.83
2022-12-03T14:40:22.621Z,64.30
2022-12-03T14:42:49.164Z,54.10
2022-12-03T14:45:15.738Z,57.77
2022-12-03T14:47:42.561Z,64.93
2022-12-03T14:50:14.012Z,60.87
2022-12-03T14:52:40.770Z,69.83
2022-12-03T14:55:07.401Z,68.73
2022-12-03T14:57:38.621Z,68.47
2022-12-03T15:00:06.637Z,69.17
2022-12-03T15:02:33.296Z,95.73
2022-12-03T15:04:59.819Z,75.00
2022-12-03T15:07:26.358Z,93.47
2022-12-03T15:09:53.071Z,104.70
2022-12-03T15:12:19.878Z,103.80
2022-12-03T15:14:47.454Z,89.73
2022-12-03T15:17:14.027Z,78.33
2022-12-03T15:19:40.692Z,77.73
2022-12-03T15:22:07.265Z,94.27
2022-12-03T15:24:33.881Z,68.83
2022-12-03T15:27:00.430Z,83.57
2022-12-03T15:29:26.973Z,74.53
2022-12-03T15:31:53.558Z,75.63
2022-12-03T15:34:22.928Z,71.50
2022-12-03T15:36:49.944Z,76.13
2022-12-03T15:39:16.423Z,75.43
2022-12-03T15:41:42.983Z,77.20
2022-12-03T15:44:09.693Z,74.43
2022-12-03T15:46:36.260Z,87.87
2022-12-03T15:49:02.976Z,89.93
2022-12-03T15:51:29.592Z,81.13
2022-12-03T15:53:56.064Z,75.00
2022-12-03T15:56:22.587Z,75.97
2022-12-03T15:58:49.155Z,84.30
2022-12-03T16:01:18.136Z,84.30
2022-12-03T16:03:45.079Z,96.67
2022-12-03T16:06:12.615Z,84.53
2022-12-03T16:08:39.221Z,78.57
2022-12-03T16:11:05.920Z,80.87
2022-12-03T16:13:32.430Z,80.47
2022-12-03T16:15:59.022Z,80.63
2022-12-03T16:18:25.598Z,73.47
2022-12-03T16:21:07.295Z,82.50
2022-12-03T16:23:33.986Z,77.70
2022-12-03T16:26:00.489Z,84.90
2022-12-03T16:28:27.025Z,84.50
2022-12-03T16:30:53.609Z,83.97
2022-12-03T16:33:25.703Z,78.80
2022-12-03T16:35:53.933Z,80.80
2022-12-03T16:38:20.401Z,76.07
2022-12-03T16:40:46.900Z,73.83
2022-12-03T16:43:13.433Z,78.10
2022-12-03T16:45:42.898Z,77.43
2022-12-03T16:48:09.406Z,78.37
2022-12-03T16:50:37.582Z,80.70
2022-12-03T16:53:04.255Z,69.30
2022-12-03T16:55:30.833Z,87.37
2022-12-03T16:57:57.385Z,76.80
2022-12-03T17:00:25.839Z,81.53
2022-12-03T17:02:52.424Z,79.00
2022-12-03T17:05:19.028Z,93.10
2022-12-03T17:07:45.636Z,93.63
2022-12-03T17:10:12.339Z,83.03
2022-12-03T17:13:07.770Z,88.23
2022-12-03T17:15:25.356Z,94.77
2022-12-03T17:17:52.922Z,95.17
2022-12-03T17:20:19.971Z,87.23
2022-12-03T17:22:46.477Z,95.47
2022-12-03T17:25:13.059Z,93.37
2022-12-03T17:27:45.073Z,89.50
2022-12-03T17:30:12.752Z,85.03
2022-12-03T17:32:39.697Z,84.90
2022-12-03T17:35:06.447Z,73.80
2022-12-03T17:37:32.921Z,92.43
2022-12-03T17:39:59.520Z,91.23
2022-12-03T17:42:26.275Z,92.33
2022-12-03T17:44:52.874Z,96.13
2022-12-03T17:47:19.444Z,86.50
2022-12-03T17:49:46.174Z,90.43
2022-12-03T17:52:12.774Z,88.63
2022-12-03T17:55:02.350Z,95.37
2022-12-03T17:57:25.843Z,91.97
2022-12-03T17:59:52.746Z,95.50
2022-12-03T18:02:19.488Z,115.97
2022-12-03T18:04:46.061Z,87.27
2022-12-03T18:07:12.576Z,87.17
2022-12-03T18:09:39.105Z,83.67
2022-12-03T18:12:05.820Z,86.07
2022-12-03T18:14:32.325Z,96.53
2022-12-03T18:16:58.836Z,93.53
2022-12-03T18:19:25.458Z,90.77
2022-12-03T18:21:52.053Z,99.70
2022-12-03T18:24:18.549Z,90.80
2022-12-03T18:26:45.150Z,87.57
2022-12-03T18:29:12.089Z,84.47
2022-12-03T18:31:38.676Z,91.27
2022-12-03T18:34:05.253Z,100.60
2022-12-03T18:36:34.090Z,92.70
2022-12-03T18:39:01.116Z,107.30
2022-12-03T18:41:27.837Z,99.07
2022-12-03T18:43:54.458Z,91.90
2022-12-03T18:49:08.967Z,92.47
2022-12-03T18:51:35.472Z,97.00
2022-12-03T18:54:01.970Z,99.43
2022-12-03T18:56:28.571Z,83.13
2022-12-03T18:58:55.067Z,89.13
2022-12-03T19:01:22.645Z,98.87
2022-12-03T19:03:49.807Z,91.30
2022-12-03T19:06:19.015Z,139.43
2022-12-03T19:08:46.238Z,123.33
2022-12-03T19:11:13.361Z,105.73
2022-12-03T19:13:40.882Z,93.87
2022-12-03T19:16:08.389Z,86.27
2022-12-03T19:18:35.215Z,94.23
2022-12-03T19:21:06.221Z,95.67
2022-12-03T19:23:33.268Z,96.20
2022-12-03T19:26:00.831Z,94.77
2022-12-03T19:28:27.928Z,102.37
2022-12-03T19:31:02.167Z,98.13
2022-12-03T19:33:29.503Z,92.07
2022-12-03T19:35:56.494Z,99.37
2022-12-03T19:38:24.220Z,95.67
2022-12-03T19:41:10.962Z,86.93
2022-12-03T19:43:38.000Z,97.53
2022-12-03T19:46:05.889Z,101.07
2022-12-03T19:48:33.180Z,93.47
2022-12-03T19:51:19.923Z,95.10
2022-12-03T19:53:47.736Z,106.17
2022-12-03T19:56:15.316Z,101.00
2022-12-03T19:58:42.438Z,103.93
2022-12-03T20:01:22.646Z,90.93
2022-12-03T20:03:50.669Z,99.17
2022-12-03T20:06:18.732Z,94.50
2022-12-03T20:08:45.823Z,93.03
2022-12-03T20:11:12.444Z,93.17
2022-12-03T20:13:39.098Z,85.37
2022-12-03T20:16:06.738Z,96.57
2022-12-03T20:18:33.313Z,91.27
2022-12-03T20:21:00.516Z,86.27
2022-12-03T20:23:27.418Z,85.77
2022-12-03T20:25:54.038Z,90.23
2022-12-03T20:28:20.603Z,91.90
2022-12-03T20:30:57.090Z,99.07
2022-12-03T20:33:24.003Z,100.67
2022-12-03T20:35:54.046Z,106.90
2022-12-03T20:38:21.427Z,107.57
2022-12-03T20:40:48.032Z,93.23
2022-12-03T20:43:14.861Z,94.97
2022-12-03T20:45:41.699Z,88.97
2022-12-03T20:48:08.532Z,86.70
2022-12-03T20:50:37.373Z,90.93
2022-12-03T20:53:23.613Z,95.00
2022-12-03T20:55:57.178Z,90.13
2022-12-03T20:58:23.859Z,84.97
2022-12-03T21:00:50.830Z,96.87
2022-12-03T21:03:17.334Z,95.43
2022-12-03T21:05:44.159Z,92.93
2022-12-03T21:08:11.410Z,97.60
2022-12-03T21:10:45.083Z,96.87
2022-12-03T21:13:12.540Z,95.50
2022-12-03T21:15:39.417Z,90.97
2022-12-03T21:18:06.118Z,103.37
2022-12-03T21:20:33.047Z,109.97
2022-12-03T21:22:59.830Z,110.00
2022-12-03T21:25:26.406Z,104.87
2022-12-03T21:27:55.008Z,116.27
2022-12-03T21:30:21.733Z,107.80
2022-12-03T21:32:48.387Z,116.33
2022-12-03T21:35:15.038Z,125.17
2022-12-03T21:37:41.784Z,119.33
2022-12-03T21:40:08.467Z,113.90
2022-12-03T21:42:37.228Z,107.03
2022-12-03T21:45:04.671Z,109.73
2022-12-03T21:47:36.866Z,104.60
2022-12-03T21:50:04.687Z,112.43
2022-12-03T21:52:32.061Z,110.50
2022-12-03T21:54:58.553Z,117.73
2022-12-03T21:57:25.033Z,110.97
2022-12-03T21:59:51.627Z,111.60
2022-12-03T22:02:18.308Z,107.77
2022-12-03T22:04:49.056Z,111.00
2022-12-03T22:07:15.541Z,111.03
2022-12-03T22:09:42.048Z,106.40
2022-12-03T22:12:08.563Z,115.90
2022-12-03T22:14:35.149Z,112.57
2022-12-03T22:17:01.684Z,109.33
2022-12-03T22:19:28.277Z,104.67
2022-12-03T22:21:54.753Z,118.63
2022-12-03T22:24:21.449Z,118.23
2022-12-03T22:26:48.020Z,122.77
2022-12-03T22:29:15.292Z,113.77
2022-12-03T22:31:41.817Z,111.90
2022-12-03T22:34:08.558Z,125.73
2022-12-03T22:36:35.140Z,110.90
2022-12-03T22:39:01.751Z,117.43
2022-12-03T22:41:28.440Z,114.90
2022-12-03T22:43:54.905Z,119.00
2022-12-03T22:46:21.508Z,120.57
2022-12-03T22:48:48.164Z,125.20
2022-12-03T22:51:16.383Z,132.97
2022-12-03T22:53:43.117Z,126.00
2022-12-03T22:56:10.011Z,122.97
2022-12-03T22:58:37.514Z,118.73
2022-12-03T23:01:04.112Z,127.37
2022-12-03T23:03:30.769Z,123.57
2022-12-03T23:05:57.372Z,127.97
2022-12-03T23:08:23.929Z,115.13
2022-12-03T23:10:51.384Z,119.73
2022-12-03T23:13:19.281Z,118.13
2022-12-03T23:15:46.879Z,118.23
2022-12-03T23:18:13.596Z,120.23
2022-12-03T23:20:44.584Z,128.37
2022-12-03T23:23:11.175Z,119.17
2022-12-03T23:25:37.736Z,124.63
2022-12-03T23:28:04.792Z,137.83
2022-12-03T23:30:31.332Z,129.33
2022-12-03T23:32:57.854Z,120.27
2022-12-03T23:35:24.353Z,115.07
2022-12-03T23:37:50.888Z,116.87
2022-12-03T23:40:17.462Z,116.97
2022-12-03T23:42:43.939Z,132.30
2022-12-03T23:45:10.651Z,120.60
2022-12-03T23:47:37.201Z,120.07
2022-12-03T23:50:04.047Z,120.87
2022-12-03T23:52:30.549Z,120.33
2022-12-03T23:54:57.075Z,122.60
2022-12-03T23:57:23.574Z,118.73
2022-12-03T23:59:50.085Z,125.97
